Time;durP1;ratioP1;P1;durP2;ratioP2;P2;SDS_P1;SDS_P2;PMS_P1;PMS_P2;Temp;Humidity;BMP_temperature;BMP_pressure;BME280_temperature;BME280_humidity;BME280_pressure;Samples;Min_cycle;Max_cycle;Signal;HPM_P1;HPM_P2
2022/03/11 00:00:44;;;;;;;15.65;8.95;;;;;;;;;;5090087;28;20387;-63
2022/03/11 00:03:13;;;;;;;15.40;8.23;;;;;;;;;;5090158;28;20063;-63
2022/03/11 00:05:42;;;;;;;12.77;8.85;;;;;;;;;;5089871;28;20044;-63
2022/03/11 00:08:09;;;;;;;16.02;9.10;;;;;;;;;;5088541;28;20470;-63
2022/03/11 00:10:35;;;;;;;15.52;8.77;;;;;;;;;;5088659;28;20035;-63
2022/03/11 00:13:01;;;;;;;13.70;8.55;;;;;;;;;;5086905;28;20055;-63
2022/03/11 00:15:27;;;;;;;11.98;8.52;;;;;;;;;;5088785;28;20044;-63
2022/03/11 00:17:53;;;;;;;12.88;8.88;;;;;;;;;;5086692;28;20498;-63
2022/03/11 00:20:20;;;;;;;10.80;7.43;;;;;;;;;;5088778;28;20062;-62
2022/03/11 00:22:47;;;;;;;11.75;8.25;;;;;;;;;;5088121;28;20516;-63
2022/03/11 00:25:14;;;;;;;13.88;8.48;;;;;;;;;;5087334;28;20048;-62
2022/03/11 00:27:40;;;;;;;13.85;8.85;;;;;;;;;;5092414;28;20036;-62
2022/03/11 00:30:06;;;;;;;15.13;8.65;;;;;;;;;;5094147;28;20163;-63
2022/03/11 00:32:32;;;;;;;13.65;8.98;;;;;;;;;;5090824;28;20040;-62
2022/03/11 00:34:59;;;;;;;18.88;8.80;;;;;;;;;;5091585;28;20079;-63
2022/03/11 00:37:25;;;;;;;14.25;8.43;;;;;;;;;;5086343;28;20173;-63
2022/03/11 00:39:51;;;;;;;15.75;9.40;;;;;;;;;;5093806;28;20501;-63
2022/03/11 00:42:17;;;;;;;14.40;8.70;;;;;;;;;;5089743;28;20044;-63
2022/03/11 00:44:44;;;;;;;13.85;9.15;;;;;;;;;;5093686;28;20491;-63
2022/03/11 00:47:10;;;;;;;21.00;9.38;;;;;;;;;;5088563;28;20040;-63
2022/03/11 00:49:37;;;;;;;13.02;8.52;;;;;;;;;;5093292;28;20052;-63
2022/03/11 00:52:03;;;;;;;12.82;8.73;;;;;;;;;;5089003;28;20059;-63
2022/03/11 00:54:29;;;;;;;13.20;8.70;;;;;;;;;;5090604;28;20121;-62
2022/03/11 00:56:55;;;;;;;14.85;9.02;;;;;;;;;;5087617;28;20047;-63
2022/03/11 00:59:21;;;;;;;13.00;8.48;;;;;;;;;;5093887;28;20044;-63
2022/03/11 01:01:47;;;;;;;14.07;8.57;;;;;;;;;;5090994;28;20052;-63
2022/03/11 01:04:14;;;;;;;15.95;9.45;;;;;;;;;;5092111;28;20144;-62
2022/03/11 01:06:40;;;;;;;14.38;8.43;;;;;;;;;;5088516;28;20125;-63
2022/03/11 01:09:06;;;;;;;13.38;8.45;;;;;;;;;;5089736;28;20039;-63
2022/03/11 01:11:33;;;;;;;14.63;8.48;;;;;;;;;;5092821;28;20123;-63
2022/03/11 01:13:59;;;;;;;14.98;8.65;;;;;;;;;;5093563;28;20390;-63
2022/03/11 01:16:25;;;;;;;14.73;9.45;;;;;;;;;;5092872;28;20040;-63
2022/03/11 01:18:51;;;;;;;13.32;8.95;;;;;;;;;;5093612;28;20436;-63
2022/03/11 01:21:17;;;;;;;16.88;9.10;;;;;;;;;;5092568;28;20447;-63
2022/03/11 01:23:43;;;;;;;14.27;8.93;;;;;;;;;;5091691;28;20067;-63
2022/03/11 01:26:11;;;;;;;12.38;8.35;;;;;;;;;;5093364;28;20046;-62
2022/03/11 01:28:41;;;;;;;11.07;7.80;;;;;;;;;;5092702;28;20075;-62
2022/03/11 01:31:07;;;;;;;12.95;8.77;;;;;;;;;;5091662;28;20032;-62
2022/03/11 01:33:33;;;;;;;12.95;9.05;;;;;;;;;;5092830;28;20538;-62
2022/03/11 01:35:59;;;;;;;16.95;9.30;;;;;;;;;;5092963;28;20158;-62
2022/03/11 01:38:25;;;;;;;16.50;9.48;;;;;;;;;;5092287;28;20115;-62
2022/03/11 01:40:51;;;;;;;13.82;9.23;;;;;;;;;;5092790;28;20032;-62
2022/03/11 01:43:18;;;;;;;14.93;9.43;;;;;;;;;;5092799;28;20371;-62
2022/03/11 01:45:44;;;;;;;13.75;9.27;;;;;;;;;;5092937;28;20043;-62
2022/03/11 01:48:11;;;;;;;15.40;9.90;;;;;;;;;;5092464;28;20032;-63
2022/03/11 01:50:39;;;;;;;17.52;9.02;;;;;;;;;;5092714;28;20199;-63
2022/03/11 01:53:06;;;;;;;14.98;9.05;;;;;;;;;;5092571;28;20408;-63
2022/03/11 01:55:32;;;;;;;13.82;9.38;;;;;;;;;;5092348;28;20036;-62
2022/03/11 01:57:58;;;;;;;14.77;9.40;;;;;;;;;;5092699;28;20123;-62
2022/03/11 02:00:24;;;;;;;14.23;9.55;;;;;;;;;;5092420;28;20569;-62
2022/03/11 02:02:50;;;;;;;14.13;10.00;;;;;;;;;;5092524;28;20042;-63
2022/03/11 02:05:17;;;;;;;13.63;8.93;;;;;;;;;;5090959;28;20115;-63
2022/03/11 02:07:43;;;;;;;16.67;8.82;;;;;;;;;;5092410;28;20046;-62
2022/03/11 02:10:09;;;;;;;13.13;8.77;;;;;;;;;;5092437;28;20044;-62
2022/03/11 02:12:36;;;;;;;13.75;8.43;;;;;;;;;;5092166;28;20562;-62
2022/03/11 02:15:04;;;;;;;12.80;8.43;;;;;;;;;;5091755;28;20598;-62
2022/03/11 02:17:30;;;;;;;13.05;9.10;;;;;;;;;;5091095;28;20040;-62
2022/03/11 02:19:56;;;;;;;13.90;8.35;;;;;;;;;;5091485;28;20075;-62
2022/03/11 02:22:23;;;;;;;14.57;8.63;;;;;;;;;;5089545;28;20043;-62
2022/03/11 02:24:49;;;;;;;15.85;8.55;;;;;;;;;;5091205;28;20123;-62
2022/03/11 02:27:15;;;;;;;15.32;9.35;;;;;;;;;;5089910;28;20439;-62
2022/03/11 02:29:41;;;;;;;13.88;8.00;;;;;;;;;;5089477;28;20036;-62
2022/03/11 02:32:09;;;;;;;13.45;8.13;;;;;;;;;;5091039;28;20048;-62
2022/03/11 02:34:36;;;;;;;12.90;8.20;;;;;;;;;;5087921;28;20494;-62
2022/03/11 02:37:03;;;;;;;13.10;8.30;;;;;;;;;;5091755;28;20071;-62
2022/03/11 02:39:29;;;;;;;14.43;8.48;;;;;;;;;;5088461;28;20123;-62
2022/03/11 02:41:55;;;;;;;15.38;8.45;;;;;;;;;;5089755;28;20039;-62
2022/03/11 02:44:22;;;;;;;14.13;8.43;;;;;;;;;;5090522;28;20059;-62
2022/03/11 02:46:49;;;;;;;13.40;7.80;;;;;;;;;;5089929;28;20039;-62
2022/03/11 02:49:15;;;;;;;12.60;7.82;;;;;;;;;;5090716;28;20518;-62
2022/03/11 02:51:41;;;;;;;12.20;8.25;;;;;;;;;;5089227;28;20497;-62
2022/03/11 02:54:07;;;;;;;15.57;8.45;;;;;;;;;;5091084;28;20571;-62
2022/03/11 02:56:33;;;;;;;14.15;8.88;;;;;;;;;;5090250;28;20482;-62
2022/03/11 02:58:59;;;;;;;14.65;8.60;;;;;;;;;;5091035;28;20051;-62
2022/03/11 03:01:25;;;;;;;15.20;8.98;;;;;;;;;;5090399;28;20036;-62
2022/03/11 03:03:51;;;;;;;13.27;8.13;;;;;;;;;;5089429;28;20379;-62
2022/03/11 03:06:17;;;;;;;12.13;7.93;;;;;;;;;;5086044;28;20395;-62
2022/03/11 03:08:43;;;;;;;14.25;8.38;;;;;;;;;;5090919;28;20046;-62
2022/03/11 03:11:09;;;;;;;12.88;8.13;;;;;;;;;;5090905;28;20036;-62
2022/03/11 03:13:35;;;;;;;16.63;8.63;;;;;;;;;;5091155;28;20508;-62
2022/03/11 03:16:02;;;;;;;15.00;8.88;;;;;;;;;;5089538;28;20101;-62
2022/03/11 03:18:29;;;;;;;14.90;8.73;;;;;;;;;;5091111;28;20062;-62
2022/03/11 03:20:55;;;;;;;15.27;9.50;;;;;;;;;;5090793;28;20059;-62
2022/03/11 03:23:21;;;;;;;13.90;8.73;;;;;;;;;;5091121;28;20490;-62
2022/03/11 03:25:47;;;;;;;14.13;8.65;;;;;;;;;;5090653;28;20127;-62
2022/03/11 03:28:13;;;;;;;14.25;8.55;;;;;;;;;;5090932;28;20036;-62
2022/03/11 03:30:39;;;;;;;17.00;10.07;;;;;;;;;;5090461;28;20399;-62
2022/03/11 03:33:05;;;;;;;15.30;9.80;;;;;;;;;;5090371;28;20070;-63
2022/03/11 03:35:31;;;;;;;15.50;9.27;;;;;;;;;;5089357;28;20059;-62
2022/03/11 03:37:57;;;;;;;15.75;9.45;;;;;;;;;;5090408;28;20043;-62
2022/03/11 03:40:23;;;;;;;16.15;9.55;;;;;;;;;;5090676;28;20069;-63
2022/03/11 03:42:50;;;;;;;13.95;8.98;;;;;;;;;;5090601;28;20047;-64
2022/03/11 03:45:16;;;;;;;16.80;9.45;;;;;;;;;;5090017;28;20044;-63
2022/03/11 03:47:42;;;;;;;19.42;10.18;;;;;;;;;;5090413;28;20062;-63
2022/03/11 03:50:08;;;;;;;14.00;9.05;;;;;;;;;;5090275;28;20434;-63
2022/03/11 03:52:34;;;;;;;15.85;9.40;;;;;;;;;;5090400;28;20500;-63
2022/03/11 03:55:00;;;;;;;18.13;10.77;;;;;;;;;;5090466;28;20119;-63
2022/03/11 03:57:27;;;;;;;16.42;9.70;;;;;;;;;;5088955;28;20128;-63
2022/03/11 03:59:53;;;;;;;19.33;10.02;;;;;;;;;;5090517;28;20054;-63
2022/03/11 04:02:19;;;;;;;15.20;9.90;;;;;;;;;;5090248;28;20490;-63
2022/03/11 04:04:45;;;;;;;16.80;9.77;;;;;;;;;;5084599;28;20036;-63
2022/03/11 04:07:12;;;;;;;16.23;10.73;;;;;;;;;;5089720;28;20063;-63
2022/03/11 04:09:38;;;;;;;15.52;10.35;;;;;;;;;;5090129;28;20036;-63
2022/03/11 04:12:04;;;;;;;15.68;10.02;;;;;;;;;;5090436;28;20036;-63
2022/03/11 04:14:30;;;;;;;15.93;10.20;;;;;;;;;;5088892;28;20387;-64
2022/03/11 04:16:56;;;;;;;14.38;9.52;;;;;;;;;;5084145;28;20410;-63
2022/03/11 04:19:22;;;;;;;18.73;10.63;;;;;;;;;;5086727;28;20089;-63
2022/03/11 04:21:48;;;;;;;15.93;10.30;;;;;;;;;;5088697;28;20119;-63
2022/03/11 04:24:14;;;;;;;15.27;10.13;;;;;;;;;;5087325;28;20040;-63
2022/03/11 04:26:43;;;;;;;18.85;10.18;;;;;;;;;;5090209;28;20039;-63
2022/03/11 04:29:09;;;;;;;17.25;10.18;;;;;;;;;;5086624;28;20093;-63
2022/03/11 04:31:35;;;;;;;17.52;10.63;;;;;;;;;;5090001;28;20036;-63
2022/03/11 04:34:02;;;;;;;20.50;10.85;;;;;;;;;;5085006;28;20097;-63
2022/03/11 04:36:29;;;;;;;17.90;10.57;;;;;;;;;;5089506;28;20040;-63
2022/03/11 04:38:55;;;;;;;18.38;10.85;;;;;;;;;;5085602;28;20028;-63
2022/03/11 04:41:21;;;;;;;21.38;11.13;;;;;;;;;;5089515;28;20036;-63
2022/03/11 04:43:48;;;;;;;16.50;10.65;;;;;;;;;;5087107;28;20044;-63
2022/03/11 04:46:14;;;;;;;15.77;10.30;;;;;;;;;;5088666;28;20067;-63
2022/03/11 04:48:43;;;;;;;17.67;10.88;;;;;;;;;;5086818;28;20105;-64
2022/03/11 04:51:09;;;;;;;20.33;11.57;;;;;;;;;;5087247;28;20421;-63
2022/03/11 04:53:35;;;;;;;18.80;11.00;;;;;;;;;;5088505;28;20036;-63
2022/03/11 04:56:01;;;;;;;17.48;10.80;;;;;;;;;;5089457;28;20482;-63
2022/03/11 04:58:27;;;;;;;20.13;10.38;;;;;;;;;;5089044;28;20048;-62
2022/03/11 05:00:53;;;;;;;17.65;11.18;;;;;;;;;;5089258;28;20039;-63
2022/03/11 05:03:19;;;;;;;19.23;11.13;;;;;;;;;;5089522;28;20115;-63
2022/03/11 05:05:45;;;;;;;19.40;11.20;;;;;;;;;;5089142;28;20079;-63
2022/03/11 05:08:11;;;;;;;17.92;10.98;;;;;;;;;;5088490;28;20039;-63
2022/03/11 05:10:37;;;;;;;17.55;10.52;;;;;;;;;;5088972;28;20039;-63
2022/03/11 05:13:03;;;;;;;20.45;11.35;;;;;;;;;;5092805;28;20393;-63
2022/03/11 05:15:30;;;;;;;18.23;12.10;;;;;;;;;;5093391;28;20040;-63
2022/03/11 05:17:56;;;;;;;19.38;11.00;;;;;;;;;;5093485;28;20036;-63
2022/03/11 05:20:22;;;;;;;19.30;11.48;;;;;;;;;;5093180;28;20478;-63
2022/03/11 05:22:48;;;;;;;19.33;11.20;;;;;;;;;;5092485;28;20140;-63
2022/03/11 05:25:14;;;;;;;18.80;11.18;;;;;;;;;;5087338;28;20061;-63
2022/03/11 05:27:40;;;;;;;19.20;10.65;;;;;;;;;;5093603;28;20537;-63
2022/03/11 05:30:07;;;;;;;17.63;11.23;;;;;;;;;;5093113;28;20118;-63
2022/03/11 05:32:33;;;;;;;22.23;11.68;;;;;;;;;;5092600;28;20036;-63
2022/03/11 05:34:59;;;;;;;21.52;11.20;;;;;;;;;;5092821;28;20046;-63
2022/03/11 05:37:25;;;;;;;20.65;11.57;;;;;;;;;;5093167;28;20036;-63
2022/03/11 05:39:51;;;;;;;21.92;11.80;;;;;;;;;;5092981;28;20047;-63
2022/03/11 05:42:17;;;;;;;19.60;11.95;;;;;;;;;;5092938;28;20501;-63
2022/03/11 05:44:43;;;;;;;19.63;11.80;;;;;;;;;;5092491;28;20044;-63
2022/03/11 05:47:09;;;;;;;18.88;11.43;;;;;;;;;;5093344;28;20029;-63
2022/03/11 05:49:35;;;;;;;17.55;11.52;;;;;;;;;;5092867;28;20059;-63
2022/03/11 05:52:01;;;;;;;22.08;12.68;;;;;;;;;;5091878;28;20039;-63
2022/03/11 05:54:27;;;;;;;19.92;12.07;;;;;;;;;;5092477;28;20511;-64
2022/03/11 05:56:54;;;;;;;25.33;13.60;;;;;;;;;;5092892;28;20039;-63
2022/03/11 05:59:21;;;;;;;20.75;12.95;;;;;;;;;;5092791;28;20051;-63
2022/03/11 06:01:47;;;;;;;24.15;13.57;;;;;;;;;;5092796;28;20483;-63
2022/03/11 06:04:13;;;;;;;21.27;13.43;;;;;;;;;;5092285;28;20040;-63
2022/03/11 06:06:39;;;;;;;23.52;13.57;;;;;;;;;;5091421;28;20040;-63
2022/03/11 06:09:08;;;;;;;23.67;13.13;;;;;;;;;;5088444;28;20483;-63
2022/03/11 06:11:34;;;;;;;22.58;13.18;;;;;;;;;;5092469;28;20486;-64
2022/03/11 06:14:01;;;;;;;21.73;12.65;;;;;;;;;;5085405;28;20047;-63
2022/03/11 06:16:27;;;;;;;22.85;13.88;;;;;;;;;;5088110;28;20036;-63
2022/03/11 06:18:53;;;;;;;22.58;13.40;;;;;;;;;;5091310;28;20036;-63
2022/03/11 06:21:19;;;;;;;21.67;13.48;;;;;;;;;;5087457;28;20101;-63
2022/03/11 06:23:45;;;;;;;21.45;13.02;;;;;;;;;;5089930;28;20399;-63
2022/03/11 06:26:11;;;;;;;22.63;13.77;;;;;;;;;;5088706;28;20100;-62
2022/03/11 06:28:37;;;;;;;29.08;14.30;;;;;;;;;;5090826;28;20169;-63
2022/03/11 06:31:03;;;;;;;22.98;13.35;;;;;;;;;;5091676;28;20070;-63
2022/03/11 06:33:29;;;;;;;21.50;12.90;;;;;;;;;;5088119;28;20526;-63
2022/03/11 06:35:55;;;;;;;23.35;13.93;;;;;;;;;;5090238;28;20127;-63
2022/03/11 06:38:21;;;;;;;28.40;15.48;;;;;;;;;;5091478;28;20166;-64
2022/03/11 06:40:49;;;;;;;21.27;13.45;;;;;;;;;;5091381;28;20055;-64
2022/03/11 06:43:15;;;;;;;25.13;13.70;;;;;;;;;;5090194;28;20051;-63
2022/03/11 06:45:42;;;;;;;25.02;14.13;;;;;;;;;;5092065;28;20535;-64
2022/03/11 06:48:08;;;;;;;21.88;13.43;;;;;;;;;;5090701;28;20044;-65
2022/03/11 06:50:34;;;;;;;24.02;13.93;;;;;;;;;;5090298;28;20055;-64
2022/03/11 06:53:00;;;;;;;23.30;14.18;;;;;;;;;;5091793;28;20040;-63
2022/03/11 06:55:27;;;;;;;23.38;13.77;;;;;;;;;;5091409;28;20082;-63
2022/03/11 06:57:53;;;;;;;22.73;13.95;;;;;;;;;;5091273;28;20040;-65
2022/03/11 07:00:19;;;;;;;24.52;13.63;;;;;;;;;;5091470;28;20048;-63
2022/03/11 07:02:45;;;;;;;28.23;14.02;;;;;;;;;;5091384;28;20040;-65
2022/03/11 07:05:11;;;;;;;24.90;13.77;;;;;;;;;;5090872;28;20055;-63
2022/03/11 07:07:38;;;;;;;24.38;14.63;;;;;;;;;;5089964;28;20079;-65
2022/03/11 07:10:05;;;;;;;23.70;14.32;;;;;;;;;;5091100;28;20150;-65
2022/03/11 07:12:31;;;;;;;22.80;14.05;;;;;;;;;;5088428;28;20040;-64
2022/03/11 07:14:59;;;;;;;25.63;14.25;;;;;;;;;;5091246;28;20132;-65
2022/03/11 07:17:25;;;;;;;23.90;13.95;;;;;;;;;;5090553;28;20062;-64
2022/03/11 07:19:51;;;;;;;23.33;13.50;;;;;;;;;;5089444;28;20040;-64
2022/03/11 07:22:17;;;;;;;22.65;13.25;;;;;;;;;;5090673;28;20040;-65
2022/03/11 07:24:44;;;;;;;23.50;13.15;;;;;;;;;;5090951;28;20044;-64
2022/03/11 07:27:11;;;;;;;24.63;14.80;;;;;;;;;;5091257;28;20082;-64
2022/03/11 07:29:37;;;;;;;23.50;13.63;;;;;;;;;;5090378;28;20510;-64
2022/03/11 07:32:03;;;;;;;20.77;13.52;;;;;;;;;;5090365;28;20055;-63
2022/03/11 07:34:29;;;;;;;21.65;12.75;;;;;;;;;;5090115;28;20039;-64
2022/03/11 07:36:55;;;;;;;22.63;13.27;;;;;;;;;;5089179;28;20059;-64
2022/03/11 07:39:21;;;;;;;22.92;13.80;;;;;;;;;;5089626;28;20040;-64
2022/03/11 07:41:49;;;;;;;20.13;11.88;;;;;;;;;;5090982;28;20124;-64
2022/03/11 07:44:16;;;;;;;20.83;13.40;;;;;;;;;;5087436;28;20089;-64
2022/03/11 07:46:42;;;;;;;21.98;13.23;;;;;;;;;;5086810;28;20114;-63
2022/03/11 07:49:09;;;;;;;21.58;13.85;;;;;;;;;;5088412;28;20431;-63
2022/03/11 07:51:35;;;;;;;25.48;13.75;;;;;;;;;;5090756;28;20500;-64
2022/03/11 07:54:01;;;;;;;25.10;13.80;;;;;;;;;;5090757;28;20031;-63
2022/03/11 07:56:27;;;;;;;25.63;14.15;;;;;;;;;;5090515;28;20514;-64
2022/03/11 07:58:57;;;;;;;24.33;13.57;;;;;;;;;;5087691;28;20036;-63
2022/03/11 08:01:23;;;;;;;21.67;12.88;;;;;;;;;;5090251;28;20502;-63
2022/03/11 08:03:49;;;;;;;22.70;13.48;;;;;;;;;;5090210;28;20051;-63
2022/03/11 08:06:16;;;;;;;20.15;12.23;;;;;;;;;;5087941;28;20118;-63
2022/03/11 08:08:43;;;;;;;23.77;13.85;;;;;;;;;;5090149;28;20136;-63
2022/03/11 08:11:09;;;;;;;21.10;14.02;;;;;;;;;;5090309;28;20035;-64
2022/03/11 08:13:35;;;;;;;18.88;10.52;;;;;;;;;;5090144;28;20028;-63
2022/03/11 08:16:02;;;;;;;21.27;13.02;;;;;;;;;;5087979;28;20052;-64
2022/03/11 08:18:29;;;;;;;22.52;14.00;;;;;;;;;;5088488;28;20078;-64
2022/03/11 08:20:55;;;;;;;22.20;14.43;;;;;;;;;;5090129;28;20040;-63
2022/03/11 08:23:21;;;;;;;23.52;14.40;;;;;;;;;;5090396;28;20035;-63
2022/03/11 08:25:47;;;;;;;21.40;13.38;;;;;;;;;;5088383;28;20040;-64
2022/03/11 08:28:13;;;;;;;23.75;13.88;;;;;;;;;;5085241;28;20042;-64
2022/03/11 08:30:40;;;;;;;20.90;11.38;;;;;;;;;;5087011;28;20483;-63
2022/03/11 08:33:06;;;;;;;24.48;13.52;;;;;;;;;;5089967;28;20479;-63
2022/03/11 08:35:32;;;;;;;24.77;14.02;;;;;;;;;;5088635;28;20040;-63
2022/03/11 08:37:59;;;;;;;23.88;14.05;;;;;;;;;;5089622;28;20040;-64
2022/03/11 08:40:26;;;;;;;23.25;13.85;;;;;;;;;;5088486;28;20048;-65
2022/03/11 08:42:52;;;;;;;23.67;13.95;;;;;;;;;;5089294;28;20139;-63
2022/03/11 08:45:22;;;;;;;23.88;14.07;;;;;;;;;;5090326;28;20443;-62
2022/03/11 08:47:49;;;;;;;22.70;12.05;;;;;;;;;;5092989;28;20466;-63
2022/03/11 08:50:15;;;;;;;23.17;13.73;;;;;;;;;;5093531;28;20080;-63
2022/03/11 08:52:42;;;;;;;23.88;13.32;;;;;;;;;;5094072;28;20433;-64
2022/03/11 08:55:08;;;;;;;25.77;13.50;;;;;;;;;;5093826;28;20123;-63
2022/03/11 08:57:35;;;;;;;20.83;12.57;;;;;;;;;;5094221;28;20471;-64
2022/03/11 09:00:06;;;;;;;24.83;13.30;;;7.90;99.90;;;;;;5093965;28;20486;-64
2022/03/11 09:02:37;;;;;;;25.50;14.05;;;;;;;;;;5094024;28;20413;-64
2022/03/11 09:05:03;;;;;;;21.38;13.13;;;;;;;;;;5093835;28;20048;-65
2022/03/11 09:07:29;;;;;;;21.88;13.73;;;;;;;;;;5094128;28;20031;-65
2022/03/11 09:09:56;;;;;;;23.02;13.68;;;;;;;;;;5093949;28;20101;-63
2022/03/11 09:12:22;;;;;;;21.10;12.68;;;;;;;;;;5092163;28;20050;-64
2022/03/11 09:14:48;;;;;;;24.50;12.85;;;;;;;;;;5093685;28;20509;-63
2022/03/11 09:17:14;;;;;;;21.60;13.48;;;;;;;;;;5092625;28;20044;-63
2022/03/11 09:19:42;;;;;;;22.40;13.27;;;;;;;;;;5093924;28;20447;-64
2022/03/11 09:22:08;;;;;;;21.60;13.85;;;;;;;;;;5093253;28;20049;-63
2022/03/11 09:24:34;;;;;;;23.13;14.43;;;;;;;;;;5088276;28;20036;-64
2022/03/11 09:27:00;;;;;;;19.52;13.00;;;;;;;;;;5092916;28;20040;-65
2022/03/11 09:29:30;;;;;;;21.67;13.43;;;;;;;;;;5090370;28;20032;-64
2022/03/11 09:31:56;;;;;;;24.65;13.85;;;;;;;;;;5090971;28;20043;-64
2022/03/11 09:34:26;;;;;;;22.98;13.52;;;;;;;;;;5091985;28;20129;-64
2022/03/11 09:36:52;;;;;;;21.77;14.30;;;;;;;;;;5093280;28;20039;-64
2022/03/11 09:39:18;;;;;;;22.13;13.18;;;;;;;;;;5092834;28;20500;-64
2022/03/11 09:41:45;;;;;;;22.60;14.02;;;;;;;;;;5092889;28;20039;-64
2022/03/11 09:44:13;;;;;;;23.67;13.48;;;10.00;99.20;;;;;;5090721;28;20039;-63
2022/03/11 09:46:40;;;;;;;20.77;11.88;;;9.90;98.70;;;;;;5090688;28;20087;-64
2022/03/11 09:49:06;;;;;;;19.33;11.32;;;;;;;;;;5092120;28;20119;-64
2022/03/11 09:51:34;;;;;;;25.35;13.93;;;10.00;98.40;;;;;;5092675;28;20036;-64
2022/03/11 09:54:01;;;;;;;24.10;12.88;;;;;;;;;;5092032;28;20043;-64
2022/03/11 09:56:27;;;;;;;23.67;14.48;;;;;;;;;;5092131;28;20048;-63
2022/03/11 09:58:56;;;;;;;20.77;13.40;;;;;;;;;;5089962;28;20047;-64
2022/03/11 10:01:22;;;;;;;21.92;13.65;;;;;;;;;;5092802;28;20039;-64
2022/03/11 10:03:48;;;;;;;19.35;12.90;;;;;;;;;;5092911;28;20057;-64
2022/03/11 10:06:14;;;;;;;21.08;13.75;;;;;;;;;;5091223;28;20549;-63
2022/03/11 10:08:44;;;;;;;22.25;12.55;;;;;;;;;;5092129;28;20068;-65
2022/03/11 10:11:30;;;;;;;17.70;10.85;;;11.40;96.20;;;;;;5089983;28;20101;-64
2022/03/11 10:14:04;;;;;;;20.60;13.02;;;;;;;;;;5091370;28;20051;-64
2022/03/11 10:16:31;;;;;;;18.42;12.73;;;;;;;;;;5092264;28;20108;-64
2022/03/11 10:18:57;;;;;;;19.40;12.85;;;;;;;;;;5092340;28;20055;-65
2022/03/11 10:21:27;;;;;;;19.85;12.85;;;;;;;;;;5091005;28;20050;-64
2022/03/11 10:23:53;;;;;;;21.92;13.80;;;;;;;;;;5091715;28;20436;-64
2022/03/11 10:26:48;;;;;;;17.92;11.38;;;12.50;95.20;;;;;;5092245;28;20036;-64
2022/03/11 10:29:16;;;;;;;19.38;13.73;;;12.60;95.40;;;;;;5091962;28;20531;-64
2022/03/11 10:31:45;;;;;;;28.30;13.88;;;;;;;;;;5091684;28;20086;-63
2022/03/11 10:34:35;;;;;;;25.33;13.23;;;12.90;94.60;;;;;;5089548;28;20043;-65
2022/03/11 10:37:05;;;;;;;18.73;13.10;;;13.00;94.00;;;;;;5091036;28;20050;-64
2022/03/11 10:39:36;;;;;;;19.30;12.20;;;12.90;93.90;;;;;;5091747;28;20036;-64
2022/03/11 10:42:17;;;;;;;18.77;12.65;;;;;;;;;;5091646;28;20043;-65
2022/03/11 10:45:06;;;;;;;18.17;11.38;;;13.10;93.50;;;;;;5088818;28;20098;-64
2022/03/11 10:47:40;;;;;;;16.52;10.65;;;13.10;93.20;;;;;;5089560;28;20103;-64
2022/03/11 10:50:11;;;;;;;23.40;13.80;;;13.20;93.30;;;;;;5091610;28;20056;-65
2022/03/11 10:52:41;;;;;;;20.27;13.07;;;;;;;;;;5091606;28;20088;-64
2022/03/11 10:55:23;;;;;;;20.58;11.93;;;;;;;;;;5089926;28;20044;-65
2022/03/11 10:57:53;;;;;;;20.73;13.98;;;13.40;92.50;;;;;;5088535;28;20040;-64
2022/03/11 11:00:24;;;;;;;22.35;13.80;;;13.70;92.80;;;;;;5090338;28;20524;-64
2022/03/11 11:02:58;;;;;;;19.52;13.50;;;;;;;;;;5090823;28;20036;-63
2022/03/11 11:05:24;;;;;;;19.00;14.10;;;;;;;;;;5091420;28;20059;-64
2022/03/11 11:07:50;;;;;;;20.30;14.00;;;;;;;;;;5091251;28;20093;-64
2022/03/11 11:10:18;;;;;;;18.52;13.73;;;14.50;92.80;;;;;;5091322;28;20097;-64
2022/03/11 11:12:45;;;;;;;23.48;13.38;;;14.70;92.40;;;;;;5090324;28;20085;-64
2022/03/11 11:15:11;;;;;;;22.98;14.80;;;15.10;92.40;;;;;;5091273;28;20039;-64
2022/03/11 11:17:39;;;;;;;20.35;13.00;;;;;;;;;;5090775;28;20063;-65
2022/03/11 11:20:12;;;;;;;20.25;13.95;;;15.30;92.00;;;;;;5088125;28;20083;-64
2022/03/11 11:22:40;;;;;;;20.45;14.43;;;;;;;;;;5089948;28;20050;-65
2022/03/11 11:25:07;;;;;;;20.83;14.43;;;15.40;95.40;;;;;;5088317;28;20047;-66
2022/03/11 11:27:34;;;;;;;21.00;14.95;;;15.50;91.00;;;;;;5086757;28;20036;-64
2022/03/11 11:30:00;;;;;;;23.70;15.05;;;;;;;;;;5090356;28;20092;-65
2022/03/11 11:32:27;;;;;;;22.75;14.63;;;;;;;;;;5090486;28;20036;-66
2022/03/11 11:34:53;;;;;;;22.02;13.93;;;;;;;;;;5090006;28;20043;-64
2022/03/11 11:37:38;;;;;;;24.30;15.05;;;16.20;90.50;;;;;;5090630;28;20115;-64
2022/03/11 11:40:21;;;;;;;19.63;14.40;;;;;;;;;;5087894;28;20394;-65
2022/03/11 11:43:31;;;;;;;21.15;14.88;;;;;;;;;;5088246;28;20127;-65
2022/03/11 11:46:10;;;;;;;21.83;14.60;;;16.30;90.50;;;;;;5087986;28;20062;-65
2022/03/11 11:48:42;;;;;;;21.60;13.88;;;;;;;;;;5088274;28;20119;-67
2022/03/11 11:51:31;;;;;;;24.27;14.73;;;16.40;90.10;;;;;;5090763;28;20429;-64
2022/03/11 11:54:08;;;;;;;23.00;15.02;;;16.40;90.00;;;;;;5023705;28;20395;-64
2022/03/11 11:56:42;;;;;;;23.58;14.50;;;16.50;87.30;;;;;;5027805;28;20080;-64
2022/03/11 11:59:19;;;;;;;19.08;13.93;;;16.70;88.70;;;;;;5026361;28;20414;-64
2022/03/11 12:01:45;;;;;;;19.92;14.63;;;;;;;;;;5025607;28;20037;-65
2022/03/11 12:04:19;;;;;;;21.23;14.45;;;17.00;87.20;;;;;;5009884;28;20108;-65
2022/03/11 12:07:03;;;;;;;24.88;15.77;;;;;;;;;;5028046;28;20069;-64
2022/03/11 12:12:25;;;;;;;20.80;14.63;;;;;;;;;;5025562;28;20050;-64
2022/03/11 12:14:56;;;;;;;22.00;14.73;;;16.50;87.30;;;;;;5026544;28;20123;-64
2022/03/11 12:17:41;;;;;;;19.63;14.93;;;16.60;86.80;;;;;;5025937;28;20049;-64
2022/03/11 12:20:33;;;;;;;20.52;14.73;;;16.30;87.40;;;;;;5026593;28;20124;-65
2022/03/11 12:23:03;;;;;;;22.77;15.05;;;16.20;87.30;;;;;;5022725;28;20120;-65
2022/03/11 12:25:35;;;;;;;19.75;14.65;;;16.20;87.50;;;;;;5026403;28;20049;-65
2022/03/11 12:28:20;;;;;;;23.10;14.00;;;;;;;;;;5010817;28;20112;-66
2022/03/11 12:30:49;;;;;;;20.77;15.40;;;;;;;;;;5050046;28;20044;-62
2022/03/11 12:33:23;;;;;;;20.67;14.05;;;;;;;;;;5087960;28;20082;-62
2022/03/11 12:35:54;;;;;;;20.85;15.90;;;15.90;90.10;;;;;;5089116;28;20043;-63
2022/03/11 12:38:21;;;;;;;19.25;14.85;;;;;;;;;;5088346;28;20032;-62
2022/03/11 12:40:48;;;;;;;21.70;13.93;;;;;;;;;;5087742;28;20040;-64
2022/03/11 12:43:15;;;;;;;18.67;14.35;;;;;;;;;;5084201;28;20123;-63
2022/03/11 12:45:50;;;;;;;24.65;14.98;;;16.90;88.30;;;;;;5089212;28;20093;-63
2022/03/11 12:48:24;;;;;;;20.85;14.65;;;16.70;88.90;;;;;;5086169;28;20039;-63
2022/03/11 12:50:50;;;;;;;18.40;13.82;;;;;;;;;;5087559;28;20048;-62
2022/03/11 12:53:17;;;;;;;22.63;13.88;;;16.70;88.90;;;;;;5088014;28;20036;-64
2022/03/11 12:55:45;;;;;;;20.55;13.98;;;;;;;;;;5085337;28;20079;-63
2022/03/11 12:58:15;;;;;;;18.42;14.13;;;16.50;88.80;;;;;;5088811;28;20040;-62
2022/03/11 13:00:42;;;;;;;22.65;14.45;;;;;;;;;;5087519;28;20040;-62
2022/03/11 13:03:09;;;;;;;19.08;14.35;;;;;;;;;;5088533;28;20079;-64
2022/03/11 13:05:36;;;;;;;23.38;14.02;;;;;;;;;;5086418;28;20079;-62
2022/03/11 13:08:07;;;;;;;18.55;14.00;;;16.80;88.30;;;;;;5086183;28;20040;-62
2022/03/11 13:10:34;;;;;;;21.83;14.57;;;16.80;87.30;;;;;;5086424;28;20036;-63
2022/03/11 13:13:00;;;;;;;22.38;14.15;;;;;;;;;;5088755;28;20067;-63
2022/03/11 13:15:32;;;;;;;20.25;14.35;;;17.80;87.60;;;;;;5088250;28;20390;-62
2022/03/11 13:18:04;;;;;;;23.17;14.20;;;;;;;;;;5084315;28;20039;-63
2022/03/11 13:20:30;;;;;;;22.77;14.88;;;;;;;;;;5087054;28;20054;-64
2022/03/11 13:22:56;;;;;;;20.40;14.10;;;;;;;;;;5088478;28;20043;-63
2022/03/11 13:25:23;;;;;;;23.13;14.98;;;;;;;;;;5089209;28;20402;-64
2022/03/11 13:27:49;;;;;;;20.77;13.23;;;;;;;;;;5089342;28;20040;-63
2022/03/11 13:30:15;;;;;;;15.95;12.45;;;;;;;;;;5087774;28;20051;-64
2022/03/11 13:32:41;;;;;;;16.73;12.27;;;;;;;;;;5089618;28;20490;-65
2022/03/11 13:35:08;;;;;;;18.20;13.90;;;;;;;;;;5091343;28;20051;-63
2022/03/11 13:37:44;;;;;;;22.10;14.27;;;;;;;;;;5092753;28;20063;-64
2022/03/11 13:40:11;;;;;;;21.33;13.40;;;;;;;;;;5093326;28;20051;-63
2022/03/11 13:42:37;;;;;;;18.98;12.35;;;;;;;;;;5091973;28;20043;-64
2022/03/11 13:45:07;;;;;;;17.25;12.50;;;;;;;;;;5090804;28;20052;-64
2022/03/11 13:47:33;;;;;;;18.73;13.23;;;;;;;;;;5092125;28;20044;-63
2022/03/11 13:50:07;;;;;;;19.80;13.32;;;;;;;;;;5090906;28;20498;-63
2022/03/11 13:52:40;;;;;;;16.83;13.05;;;;;;;;;;5091404;28;20067;-63
2022/03/11 13:55:10;;;;;;;19.60;13.77;;;17.60;83.80;;;;;;5090072;28;20074;-63
2022/03/11 13:57:36;;;;;;;15.88;12.07;;;;;;;;;;5089571;28;20096;-63
2022/03/11 14:00:16;;;;;;;18.05;12.50;;;;;;;;;;5092743;28;20040;-63
2022/03/11 14:02:42;;;;;;;20.27;12.35;;;;;;;;;;5091210;28;21617;-63
2022/03/11 14:05:13;;;;;;;17.20;12.05;;;18.40;82.10;;;;;;5091506;28;20044;-64
2022/03/11 14:07:39;;;;;;;16.35;11.98;;;;;;;;;;5091857;28;20051;-63
2022/03/11 14:10:08;;;;;;;18.30;12.68;;;;;;;;;;5073376;28;20035;-63